Terminal Aerodrome Forecast
Issued by NWS

Home | Current Version | Previous Version | Text Only | Print | Product List | Glossary On
Versions: 1 2 3 4 5 6 7 8 9 10 11 12 13 14 15 16 17 18 19
666
FTAK31 PAJN 182325
TAFAGY
TAF
PAGY 182325Z 1900/1924 04020G35KT 4SM -SHSN SCT025 OVC050
     FM190200 04012G20KT 2SM -SHSN SCT007 OVC015
     FM190400 04007KT 1/2SM SHSN FG BKN005 OVC010
     FM191500 21015G25KT P6SM VCSH SCT030 OVC050
      AMD LTD TO CLD VIS AND WIND=

USA.gov is the U.S. government's official web portal to all federal, state and local government web resources and services.